createdAt,value
2018-06-03T00:00:17.045Z,22.67
2018-06-03T00:01:17.071Z,22.67
2018-06-03T00:02:17.094Z,22.70
2018-06-03T00:03:17.117Z,22.74
2018-06-03T00:04:17.142Z,22.69
2018-06-03T00:05:38.177Z,22.75
2018-06-03T00:06:17.185Z,22.69
2018-06-03T00:07:17.207Z,22.74
2018-06-03T00:08:17.238Z,22.72
2018-06-03T00:09:17.255Z,22.67
2018-06-03T00:10:17.282Z,22.67
2018-06-03T00:11:38.325Z,22.70
2018-06-03T00:12:17.324Z,22.72
2018-06-03T00:13:17.355Z,22.70
2018-06-03T00:14:17.373Z,22.72
2018-06-03T00:15:17.395Z,22.67
2018-06-03T00:16:17.419Z,22.67
2018-06-03T00:17:38.456Z,22.69
2018-06-03T00:18:17.465Z,22.75
2018-06-03T00:19:17.488Z,22.70
2018-06-03T00:20:17.512Z,22.72
2018-06-03T00:21:17.535Z,22.67
2018-06-03T00:22:17.558Z,22.74
2018-06-03T00:23:38.595Z,22.72
2018-06-03T00:24:17.606Z,22.72
2018-06-03T00:25:17.630Z,22.70
2018-06-03T00:26:17.696Z,22.70
2018-06-03T00:27:17.676Z,22.67
2018-06-03T00:28:17.696Z,22.66
2018-06-03T00:29:38.740Z,22.59
2018-06-03T00:30:17.747Z,22.69
2018-06-03T00:31:17.767Z,22.67
2018-06-03T00:32:17.794Z,22.70
2018-06-03T00:33:17.824Z,22.66
2018-06-03T00:34:17.839Z,22.72
2018-06-03T00:35:38.880Z,22.74
2018-06-03T00:36:17.888Z,22.69
2018-06-03T00:37:17.918Z,22.70
2018-06-03T00:38:17.933Z,22.72
2018-06-03T00:39:17.954Z,22.70
2018-06-03T00:40:17.978Z,22.67
2018-06-03T00:41:39.016Z,22.67
2018-06-03T00:42:18.022Z,22.66
2018-06-03T00:43:18.047Z,22.69
2018-06-03T00:44:18.077Z,22.67
2018-06-03T00:45:18.092Z,22.64
2018-06-03T00:46:18.114Z,22.70
2018-06-03T00:47:39.157Z,22.67
2018-06-03T00:48:18.159Z,22.72
2018-06-03T00:49:18.185Z,22.72
2018-06-03T00:50:18.209Z,22.67
2018-06-03T00:51:18.232Z,22.66
2018-06-03T00:52:18.254Z,22.66
2018-06-03T00:53:39.299Z,22.70
2018-06-03T00:54:18.298Z,22.64
2018-06-03T00:55:18.324Z,22.70
2018-06-03T00:56:18.352Z,22.70
2018-06-03T00:57:18.366Z,22.72
2018-06-03T00:58:18.394Z,22.66
2018-06-03T00:59:39.435Z,22.69
2018-06-03T01:00:18.441Z,22.70
2018-06-03T01:01:18.464Z,22.66
2018-06-03T01:02:18.492Z,22.74
2018-06-03T01:03:18.508Z,22.70
2018-06-03T01:04:18.533Z,22.67
2018-06-03T01:05:39.578Z,22.67
2018-06-03T01:06:18.584Z,22.69
2018-06-03T01:07:18.603Z,22.69
2018-06-03T01:08:18.628Z,22.67
2018-06-03T01:09:18.646Z,22.72
2018-06-03T01:10:18.671Z,22.70
2018-06-03T01:11:39.713Z,22.67
2018-06-03T01:12:18.719Z,22.70
2018-06-03T01:13:18.740Z,22.64
2018-06-03T01:14:18.766Z,22.66
2018-06-03T01:15:18.797Z,22.67
2018-06-03T01:16:18.811Z,22.69
2018-06-03T01:17:39.853Z,22.66
2018-06-03T01:18:18.868Z,22.64
2018-06-03T01:19:18.879Z,22.75
2018-06-03T01:20:18.912Z,22.69
2018-06-03T01:21:18.929Z,22.72
2018-06-03T01:22:18.956Z,22.70
2018-06-03T01:23:39.991Z,22.66
2018-06-03T01:24:19.000Z,22.69
2018-06-03T01:25:19.019Z,22.67
2018-06-03T01:26:19.042Z,22.63
2018-06-03T01:27:19.071Z,22.72
2018-06-03T01:28:19.087Z,22.70
2018-06-03T01:29:40.128Z,22.69
2018-06-03T01:30:19.142Z,22.70
2018-06-03T01:31:19.159Z,22.66
2018-06-03T01:32:19.182Z,22.74
2018-06-03T01:33:19.213Z,22.67
2018-06-03T01:34:19.228Z,22.69
2018-06-03T01:35:40.272Z,22.69
2018-06-03T01:36:19.276Z,22.70
2018-06-03T01:37:19.301Z,22.67
2018-06-03T01:38:19.322Z,22.66
2018-06-03T01:39:19.349Z,22.67
2018-06-03T01:40:19.371Z,22.66
2018-06-03T01:41:40.408Z,22.67
2018-06-03T01:42:19.415Z,22.66
2018-06-03T01:43:19.440Z,22.67
2018-06-03T01:44:19.460Z,22.64
2018-06-03T01:45:19.489Z,22.67
2018-06-03T01:46:19.514Z,22.70
2018-06-03T01:47:40.548Z,22.69
2018-06-03T01:48:19.553Z,22.74
2018-06-03T01:49:19.578Z,22.66
2018-06-03T01:50:19.601Z,22.66
2018-06-03T01:51:19.627Z,22.70
2018-06-03T01:52:19.646Z,22.69
2018-06-03T01:53:40.684Z,22.67
2018-06-03T01:54:19.700Z,22.70
2018-06-03T01:55:19.712Z,22.66
2018-06-03T01:56:19.740Z,22.61
2018-06-03T01:57:19.764Z,22.67
2018-06-03T01:58:19.784Z,22.70
2018-06-03T01:59:40.827Z,22.67
2018-06-03T02:00:19.835Z,22.74
2018-06-03T02:01:19.854Z,22.66
2018-06-03T02:02:19.879Z,22.69
2018-06-03T02:03:19.934Z,22.70
2018-06-03T02:04:19.921Z,22.69
2018-06-03T02:05:40.963Z,22.69
2018-06-03T02:06:19.972Z,22.69
2018-06-03T02:07:19.991Z,22.67
2018-06-03T02:08:20.020Z,22.64
2018-06-03T02:09:20.044Z,22.66
2018-06-03T02:10:20.063Z,22.67
2018-06-03T02:11:41.105Z,22.64
2018-06-03T02:12:20.113Z,22.60
2018-06-03T02:13:20.132Z,22.69
2018-06-03T02:14:20.157Z,22.60
2018-06-03T02:15:20.182Z,22.67
2018-06-03T02:16:20.205Z,22.69
2018-06-03T02:17:41.239Z,22.64
2018-06-03T02:18:20.249Z,22.64
2018-06-03T02:19:20.273Z,22.67
2018-06-03T02:20:20.298Z,22.64
2018-06-03T02:21:20.318Z,22.59
2018-06-03T02:22:20.349Z,22.63
2018-06-03T02:23:41.428Z,22.67
2018-06-03T02:24:20.390Z,22.67
2018-06-03T02:25:20.409Z,22.63
2018-06-03T02:26:20.432Z,22.69
2018-06-03T02:27:20.458Z,22.63
2018-06-03T02:28:20.482Z,22.61
2018-06-03T02:29:41.519Z,22.67
2018-06-03T02:30:20.530Z,22.63
2018-06-03T02:31:20.551Z,22.64
2018-06-03T02:32:20.580Z,22.57
2018-06-03T02:33:20.598Z,22.63
2018-06-03T02:34:20.623Z,22.64
2018-06-03T02:35:41.658Z,22.66
2018-06-03T02:36:20.667Z,22.63
2018-06-03T02:37:20.688Z,22.69
2018-06-03T02:38:20.713Z,22.57
2018-06-03T02:39:20.738Z,22.64
2018-06-03T02:40:20.767Z,22.64
2018-06-03T02:41:41.797Z,22.60
2018-06-03T02:42:20.809Z,22.67
2018-06-03T02:43:20.838Z,22.69
2018-06-03T02:44:20.851Z,22.69
2018-06-03T02:45:20.877Z,22.64
2018-06-03T02:46:20.902Z,22.57
2018-06-03T02:47:41.937Z,22.60
2018-06-03T02:48:20.945Z,22.63
2018-06-03T02:49:20.968Z,22.69
2018-06-03T02:50:20.991Z,22.64
2018-06-03T02:51:21.012Z,22.64
2018-06-03T02:52:21.038Z,22.64
2018-06-03T02:53:42.081Z,22.64
2018-06-03T02:54:21.086Z,22.67
2018-06-03T02:55:21.112Z,22.64
2018-06-03T02:56:21.131Z,22.63
2018-06-03T02:57:21.151Z,22.66
2018-06-03T02:58:21.179Z,22.63
2018-06-03T02:59:42.216Z,22.61
2018-06-03T03:00:21.222Z,22.61
2018-06-03T03:01:21.244Z,22.66
2018-06-03T03:02:21.270Z,22.67
2018-06-03T03:03:21.292Z,22.66
2018-06-03T03:04:21.314Z,22.64
2018-06-03T03:05:42.356Z,22.66
2018-06-03T03:06:21.358Z,22.64
2018-06-03T03:07:21.388Z,22.70
2018-06-03T03:08:21.409Z,22.66
2018-06-03T03:09:21.432Z,22.64
2018-06-03T03:10:21.452Z,22.67
2018-06-03T03:11:42.496Z,22.69
2018-06-03T03:12:21.501Z,22.67
2018-06-03T03:13:21.518Z,22.69
2018-06-03T03:14:21.547Z,22.67
2018-06-03T03:15:21.568Z,22.69
2018-06-03T03:16:21.591Z,22.70
2018-06-03T03:17:42.630Z,22.66
2018-06-03T03:18:21.641Z,22.69
2018-06-03T03:19:21.660Z,22.72
2018-06-03T03:20:21.687Z,22.66
2018-06-03T03:21:21.706Z,22.63
2018-06-03T03:22:21.730Z,22.72
2018-06-03T03:23:42.774Z,22.67
2018-06-03T03:24:21.777Z,22.72
2018-06-03T03:25:21.797Z,22.66
2018-06-03T03:26:21.822Z,22.70
2018-06-03T03:27:21.846Z,22.69
2018-06-03T03:28:21.868Z,22.69
2018-06-03T03:29:42.912Z,22.67
2018-06-03T03:30:21.917Z,22.66
2018-06-03T03:31:21.957Z,22.75
2018-06-03T03:32:21.964Z,22.67
2018-06-03T03:33:21.988Z,22.69
2018-06-03T03:34:22.010Z,22.74
2018-06-03T03:35:43.047Z,22.72
2018-06-03T03:36:22.056Z,22.69
2018-06-03T03:37:22.080Z,22.70
2018-06-03T03:38:22.101Z,22.72
2018-06-03T03:39:22.125Z,22.70
2018-06-03T03:40:22.154Z,22.75
2018-06-03T03:41:43.187Z,22.67
2018-06-03T03:42:22.195Z,22.74
2018-06-03T03:43:22.219Z,22.70
2018-06-03T03:44:22.240Z,22.74
2018-06-03T03:45:22.263Z,22.67
2018-06-03T03:46:22.287Z,22.75
2018-06-03T03:47:43.328Z,22.74
2018-06-03T03:48:22.332Z,22.69
2018-06-03T03:49:22.360Z,22.74
2018-06-03T03:50:22.379Z,22.72
2018-06-03T03:51:22.405Z,22.70
2018-06-03T03:52:22.427Z,22.66
2018-06-03T03:53:43.466Z,22.70
2018-06-03T03:54:22.471Z,22.72
2018-06-03T03:55:22.498Z,22.69
2018-06-03T03:56:22.521Z,22.74
2018-06-03T03:57:22.542Z,22.74
2018-06-03T03:58:22.567Z,22.70
2018-06-03T03:59:43.611Z,22.75
2018-06-03T04:00:22.612Z,22.72
2018-06-03T04:01:22.635Z,22.69
2018-06-03T04:02:22.658Z,22.72
2018-06-03T04:03:22.680Z,22.75
2018-06-03T04:04:22.703Z,22.69
2018-06-03T04:05:43.744Z,22.69
2018-06-03T04:06:22.750Z,22.72
2018-06-03T04:07:22.774Z,22.72
2018-06-03T04:08:22.798Z,22.66
2018-06-03T04:09:22.818Z,22.72
2018-06-03T04:10:22.845Z,22.76
2018-06-03T04:11:43.884Z,22.66
2018-06-03T04:12:22.889Z,22.69
2018-06-03T04:13:22.913Z,22.72
2018-06-03T04:14:22.938Z,22.72
2018-06-03T04:15:22.956Z,22.72
2018-06-03T04:16:22.982Z,22.75
2018-06-03T04:17:44.020Z,22.72
2018-06-03T04:18:23.032Z,22.69
2018-06-03T04:19:23.052Z,22.67
2018-06-03T04:20:23.083Z,22.75
2018-06-03T04:21:23.097Z,22.74
2018-06-03T04:22:23.122Z,22.69
2018-06-03T04:23:44.162Z,22.75
2018-06-03T04:24:23.168Z,22.66
2018-06-03T04:25:23.191Z,22.70
2018-06-03T04:26:23.220Z,22.75
2018-06-03T04:27:23.240Z,22.69
2018-06-03T04:28:23.264Z,22.69
2018-06-03T04:29:44.300Z,22.70
2018-06-03T04:30:23.305Z,22.69
2018-06-03T04:31:23.330Z,22.69
2018-06-03T04:32:23.354Z,22.66
2018-06-03T04:33:23.379Z,22.72
2018-06-03T04:34:23.399Z,22.66
2018-06-03T04:35:44.440Z,22.67
2018-06-03T04:36:23.447Z,22.69
2018-06-03T04:37:23.465Z,22.76
2018-06-03T04:38:23.493Z,22.69
2018-06-03T04:39:23.516Z,22.67
2018-06-03T04:40:23.538Z,22.75
2018-06-03T04:41:44.585Z,22.79
2018-06-03T04:42:23.591Z,22.81
2018-06-03T04:43:23.611Z,22.82
2018-06-03T04:44:23.632Z,22.76
2018-06-03T04:45:23.656Z,22.84
2018-06-03T04:46:23.677Z,22.78
2018-06-03T04:47:44.718Z,22.76
2018-06-03T04:48:23.728Z,22.85
2018-06-03T04:49:23.746Z,22.86
2018-06-03T04:50:23.768Z,22.81
2018-06-03T04:51:23.794Z,22.75
2018-06-03T04:52:23.821Z,22.81
2018-06-03T04:53:44.856Z,22.81
2018-06-03T04:54:23.863Z,22.75
2018-06-03T04:55:23.886Z,22.81
2018-06-03T04:56:23.910Z,22.85
2018-06-03T04:57:23.933Z,22.93
2018-06-03T04:58:23.959Z,22.85
2018-06-03T04:59:45.004Z,22.85
2018-06-03T05:00:24.003Z,22.85
2018-06-03T05:01:24.027Z,22.82
2018-06-03T05:02:24.051Z,22.93
2018-06-03T05:03:24.074Z,22.88
2018-06-03T05:04:24.098Z,22.88
2018-06-03T05:05:45.133Z,22.96
2018-06-03T05:06:24.141Z,22.93
2018-06-03T05:07:24.164Z,22.91
2018-06-03T05:08:24.188Z,22.94
2018-06-03T05:09:24.210Z,22.97
2018-06-03T05:10:24.234Z,22.99
2018-06-03T05:11:45.277Z,22.99
2018-06-03T05:12:24.284Z,22.97
2018-06-03T05:13:24.306Z,23.06
2018-06-03T05:14:24.327Z,22.94
2018-06-03T05:15:24.357Z,23.03
2018-06-03T05:16:24.376Z,23.00
2018-06-03T05:17:45.418Z,23.07
2018-06-03T05:18:24.424Z,23.03
2018-06-03T05:19:24.444Z,23.18
2018-06-03T05:20:24.468Z,23.16
2018-06-03T05:21:24.500Z,23.21
2018-06-03T05:22:24.513Z,23.26
2018-06-03T05:23:45.556Z,23.39
2018-06-03T05:24:24.566Z,23.60
2018-06-03T05:25:24.584Z,23.67
2018-06-03T05:26:24.608Z,23.68
2018-06-03T05:27:24.631Z,23.82
2018-06-03T05:28:24.667Z,23.87
2018-06-03T05:29:45.696Z,24.11
2018-06-03T05:30:24.706Z,24.30
2018-06-03T05:31:24.728Z,24.56
2018-06-03T05:32:24.752Z,24.77
2018-06-03T05:33:24.780Z,24.84
2018-06-03T05:34:24.799Z,24.97
2018-06-03T05:35:45.841Z,25.01
2018-06-03T05:36:24.846Z,24.99
2018-06-03T05:37:24.873Z,24.97
2018-06-03T05:38:24.893Z,24.94
2018-06-03T05:39:24.919Z,24.93
2018-06-03T05:40:24.950Z,24.94
2018-06-03T05:41:45.982Z,25.04
2018-06-03T05:42:25.006Z,25.04
2018-06-03T05:43:25.021Z,25.22
2018-06-03T05:44:25.043Z,25.22
2018-06-03T05:45:25.063Z,25.19
2018-06-03T05:46:25.088Z,25.23
2018-06-03T05:47:46.129Z,25.23
2018-06-03T05:48:25.140Z,25.20
2018-06-03T05:49:25.159Z,25.20
2018-06-03T05:50:25.184Z,25.05
2018-06-03T05:51:25.208Z,25.04
2018-06-03T05:52:25.235Z,25.07
2018-06-03T05:53:46.274Z,24.99
2018-06-03T05:54:25.282Z,24.99
2018-06-03T05:55:25.308Z,24.97
2018-06-03T05:56:25.330Z,25.09
2018-06-03T05:57:25.354Z,25.08
2018-06-03T05:58:25.380Z,25.23
2018-06-03T05:59:46.431Z,25.24
2018-06-03T06:00:25.430Z,25.19
2018-06-03T06:01:25.454Z,25.19
2018-06-03T06:02:25.480Z,25.22
2018-06-03T06:03:25.505Z,25.31
2018-06-03T06:04:25.536Z,25.36
2018-06-03T06:05:46.572Z,25.54
2018-06-03T06:06:25.577Z,25.93
2018-06-03T06:07:25.602Z,26.04
2018-06-03T06:08:25.630Z,25.83
2018-06-03T06:09:25.690Z,25.96
2018-06-03T06:10:25.682Z,26.24
2018-06-03T06:11:46.723Z,26.21
2018-06-03T06:12:25.727Z,26.21
2018-06-03T06:13:25.755Z,26.23
2018-06-03T06:14:25.779Z,26.36
2018-06-03T06:15:25.804Z,26.35
2018-06-03T06:16:25.828Z,26.21
2018-06-03T06:17:46.875Z,26.59
2018-06-03T06:18:25.885Z,26.71
2018-06-03T06:19:25.905Z,26.71
2018-06-03T06:20:25.929Z,26.47
2018-06-03T06:21:25.959Z,26.35
2018-06-03T06:22:25.981Z,26.19
2018-06-03T06:23:47.030Z,26.08
2018-06-03T06:24:26.035Z,25.94
2018-06-03T06:25:26.056Z,25.89
2018-06-03T06:26:26.083Z,25.79
2018-06-03T06:27:26.108Z,25.78
2018-06-03T06:28:26.137Z,25.69
2018-06-03T06:29:47.170Z,25.60
2018-06-03T06:30:26.179Z,25.51
2018-06-03T06:31:26.206Z,25.46
2018-06-03T06:32:26.230Z,25.35
2018-06-03T06:33:26.257Z,25.34
2018-06-03T06:34:26.281Z,25.36
2018-06-03T06:35:47.324Z,25.20
2018-06-03T06:36:26.353Z,25.24
2018-06-03T06:37:26.357Z,25.05
2018-06-03T06:38:26.386Z,25.09
2018-06-03T06:39:26.410Z,25.08
2018-06-03T06:40:26.433Z,25.08
2018-06-03T06:41:47.478Z,24.99
2018-06-03T06:42:26.483Z,24.92
2018-06-03T06:43:26.509Z,24.98
2018-06-03T06:44:26.539Z,24.94
2018-06-03T06:45:26.563Z,24.93
2018-06-03T06:46:26.595Z,24.86
2018-06-03T06:47:47.628Z,24.87
2018-06-03T06:48:26.633Z,24.86
2018-06-03T06:49:26.662Z,24.86
2018-06-03T06:50:26.684Z,24.83
2018-06-03T06:51:26.710Z,24.84
2018-06-03T06:52:26.736Z,24.83
2018-06-03T06:53:47.777Z,24.74
2018-06-03T06:54:26.786Z,24.83
2018-06-03T06:55:26.810Z,24.71
2018-06-03T06:56:26.836Z,24.71
2018-06-03T06:57:26.917Z,24.77
2018-06-03T06:58:26.887Z,24.74
2018-06-03T06:59:47.932Z,24.74
2018-06-03T07:00:26.936Z,24.70
2018-06-03T07:01:26.963Z,24.70
2018-06-03T07:02:26.986Z,24.75
2018-06-03T07:03:27.012Z,24.71
2018-06-03T07:04:27.034Z,24.74
2018-06-03T07:05:48.080Z,24.70
2018-06-03T07:06:27.092Z,24.82
2018-06-03T07:07:27.108Z,24.70
2018-06-03T07:08:27.140Z,24.68
2018-06-03T07:09:27.161Z,24.70
2018-06-03T07:10:27.185Z,24.74
2018-06-03T07:11:48.232Z,24.68
2018-06-03T07:12:27.235Z,24.66
2018-06-03T07:13:27.258Z,24.71
2018-06-03T07:14:27.285Z,24.74
2018-06-03T07:15:27.309Z,24.68
2018-06-03T07:16:27.337Z,24.71
2018-06-03T07:17:48.376Z,24.53
2018-06-03T07:18:27.382Z,24.61
2018-06-03T07:19:27.412Z,24.64
2018-06-03T07:20:27.435Z,24.56
2018-06-03T07:21:27.457Z,24.59
2018-06-03T07:22:27.488Z,24.53
2018-06-03T07:23:48.526Z,24.56
2018-06-03T07:24:27.532Z,24.56
2018-06-03T07:25:27.555Z,24.53
2018-06-03T07:26:27.582Z,24.51
2018-06-03T07:27:27.606Z,24.52
2018-06-03T07:28:27.631Z,24.52
2018-06-03T07:29:48.674Z,24.59
2018-06-03T07:30:27.684Z,24.53
2018-06-03T07:31:27.704Z,24.56
2018-06-03T07:32:27.731Z,24.52
2018-06-03T07:33:27.754Z,24.56
2018-06-03T07:34:27.779Z,24.52
2018-06-03T07:35:48.826Z,24.59
2018-06-03T07:36:27.830Z,24.56
2018-06-03T07:37:27.853Z,24.56
2018-06-03T07:38:27.877Z,24.56
2018-06-03T07:39:27.903Z,24.60
2018-06-03T07:40:27.928Z,24.60
2018-06-03T07:41:48.971Z,24.53
2018-06-03T07:42:27.981Z,24.59
2018-06-03T07:43:28.001Z,24.68
2018-06-03T07:44:28.028Z,24.68
2018-06-03T07:45:28.050Z,24.77
2018-06-03T07:46:28.077Z,24.74
2018-06-03T07:47:49.119Z,24.75
2018-06-03T07:48:28.126Z,24.82
2018-06-03T07:49:28.150Z,24.71
2018-06-03T07:50:28.228Z,24.87
2018-06-03T07:51:28.198Z,24.84
2018-06-03T07:52:28.234Z,24.83
2018-06-03T07:53:49.267Z,24.87
2018-06-03T07:54:28.272Z,24.87
2018-06-03T07:55:28.297Z,24.84
2018-06-03T07:56:28.320Z,24.90
2018-06-03T07:57:28.345Z,24.92
2018-06-03T07:58:28.366Z,24.93
2018-06-03T07:59:49.415Z,24.94
2018-06-03T08:00:28.418Z,24.94
2018-06-03T08:01:28.441Z,24.92
2018-06-03T08:02:28.466Z,24.97
2018-06-03T08:03:28.492Z,24.93
2018-06-03T08:04:28.526Z,24.94
2018-06-03T08:05:49.556Z,25.02
2018-06-03T08:06:28.568Z,24.99
2018-06-03T08:07:28.592Z,25.04
2018-06-03T08:08:28.613Z,25.04
2018-06-03T08:09:28.639Z,24.99
2018-06-03T08:10:28.669Z,25.02
2018-06-03T08:11:49.710Z,25.02
2018-06-03T08:12:28.716Z,25.07
2018-06-03T08:13:28.739Z,25.04
2018-06-03T08:14:28.765Z,24.97
2018-06-03T08:15:28.787Z,25.01
2018-06-03T08:16:28.815Z,24.99
2018-06-03T08:17:49.859Z,24.93
2018-06-03T08:18:28.861Z,24.99
2018-06-03T08:19:28.887Z,25.04
2018-06-03T08:20:28.911Z,25.01
2018-06-03T08:21:28.937Z,25.02
2018-06-03T08:22:28.967Z,25.01
2018-06-03T08:23:50.004Z,24.98
2018-06-03T08:24:29.016Z,24.97
2018-06-03T08:25:29.038Z,25.01
2018-06-03T08:26:29.061Z,25.01
2018-06-03T08:27:29.086Z,24.98
2018-06-03T08:28:29.110Z,25.05
2018-06-03T08:29:50.186Z,25.02
2018-06-03T08:30:29.174Z,25.07
2018-06-03T08:31:29.183Z,25.04
2018-06-03T08:32:29.207Z,25.04
2018-06-03T08:33:29.246Z,25.08
2018-06-03T08:34:29.255Z,25.08
2018-06-03T08:35:50.298Z,25.08
2018-06-03T08:36:29.310Z,25.09
2018-06-03T08:37:29.333Z,25.07
2018-06-03T08:38:29.358Z,25.11
2018-06-03T08:39:29.379Z,25.17
2018-06-03T08:40:29.407Z,25.20
2018-06-03T08:41:50.446Z,25.16
2018-06-03T08:42:29.455Z,25.14
2018-06-03T08:43:29.480Z,25.17
2018-06-03T08:44:29.510Z,25.19
2018-06-03T08:45:29.529Z,25.11
2018-06-03T08:46:29.553Z,25.26
2018-06-03T08:47:50.603Z,25.23
2018-06-03T08:48:29.605Z,25.24
2018-06-03T08:49:29.630Z,25.34
2018-06-03T08:50:29.659Z,25.30
2018-06-03T08:51:29.681Z,25.30
2018-06-03T08:52:29.707Z,25.22
2018-06-03T08:53:50.742Z,25.36
2018-06-03T08:54:29.754Z,25.30
2018-06-03T08:55:29.780Z,25.31
2018-06-03T08:56:29.803Z,25.29
2018-06-03T08:57:29.829Z,25.26
2018-06-03T08:58:29.852Z,25.42
2018-06-03T08:59:50.898Z,25.38
2018-06-03T09:00:29.926Z,25.45
2018-06-03T09:01:29.931Z,25.36
2018-06-03T09:02:29.953Z,25.46
2018-06-03T09:03:29.981Z,25.41
2018-06-03T09:04:30.008Z,25.44
2018-06-03T09:05:51.049Z,25.46
2018-06-03T09:06:30.056Z,25.46
2018-06-03T09:07:30.078Z,25.54
2018-06-03T09:08:30.109Z,25.46
2018-06-03T09:09:30.130Z,25.46
2018-06-03T09:10:30.151Z,25.54
2018-06-03T09:11:51.200Z,25.49
2018-06-03T09:12:30.210Z,25.48
2018-06-03T09:13:30.228Z,25.44
2018-06-03T09:14:30.259Z,25.45
2018-06-03T09:15:30.282Z,25.46
2018-06-03T09:16:30.304Z,25.51
2018-06-03T09:17:51.347Z,25.42
2018-06-03T09:18:30.354Z,25.46
2018-06-03T09:19:30.382Z,25.51
2018-06-03T09:20:30.404Z,25.49
2018-06-03T09:21:30.430Z,25.45
2018-06-03T09:22:30.458Z,25.49
2018-06-03T09:23:51.500Z,25.49
2018-06-03T09:24:30.506Z,25.46
2018-06-03T09:25:30.529Z,25.48
2018-06-03T09:26:30.562Z,25.63
2018-06-03T09:27:30.583Z,25.46
2018-06-03T09:28:30.606Z,25.45
2018-06-03T09:29:51.647Z,25.49
2018-06-03T09:30:30.655Z,25.44
2018-06-03T09:31:30.685Z,25.48
2018-06-03T09:32:30.712Z,25.45
2018-06-03T09:33:30.728Z,25.46
2018-06-03T09:34:30.756Z,25.49
2018-06-03T09:35:51.799Z,25.53
2018-06-03T09:36:30.811Z,25.49
2018-06-03T09:37:30.831Z,25.51
2018-06-03T09:38:30.859Z,25.54
2018-06-03T09:39:30.887Z,25.49
2018-06-03T09:40:30.909Z,25.54
2018-06-03T09:41:51.957Z,25.56
2018-06-03T09:42:30.961Z,25.63
2018-06-03T09:43:30.982Z,25.54
2018-06-03T09:44:31.011Z,25.66
2018-06-03T09:45:31.034Z,25.64
2018-06-03T09:46:31.061Z,25.69
2018-06-03T09:47:52.101Z,25.64
2018-06-03T09:48:31.111Z,25.64
2018-06-03T09:49:31.134Z,25.74
2018-06-03T09:50:31.163Z,25.71
2018-06-03T09:51:31.193Z,25.74
2018-06-03T09:52:31.211Z,25.75
2018-06-03T09:53:52.251Z,25.76
2018-06-03T09:54:31.261Z,25.74
2018-06-03T09:55:31.298Z,25.71
2018-06-03T09:56:31.315Z,25.66
2018-06-03T09:57:31.335Z,25.69
2018-06-03T09:58:31.361Z,25.72
2018-06-03T09:59:52.408Z,25.64
2018-06-03T10:00:31.438Z,25.66
2018-06-03T10:01:31.438Z,25.71
2018-06-03T10:02:31.464Z,25.60
2018-06-03T10:03:31.498Z,25.63
2018-06-03T10:04:31.515Z,25.63
2018-06-03T10:05:52.560Z,25.61
2018-06-03T10:06:31.566Z,25.64
2018-06-03T10:07:31.589Z,25.63
2018-06-03T10:08:31.618Z,25.56
2018-06-03T10:09:31.651Z,25.72
2018-06-03T10:10:31.666Z,25.66
2018-06-03T10:11:52.720Z,25.66
2018-06-03T10:12:31.717Z,25.64
2018-06-03T10:13:31.750Z,25.74
2018-06-03T10:14:31.767Z,25.69
2018-06-03T10:15:31.800Z,25.72
2018-06-03T10:16:31.825Z,25.71
2018-06-03T10:17:52.858Z,25.72
2018-06-03T10:18:31.873Z,25.72
2018-06-03T10:19:31.894Z,25.75
2018-06-03T10:20:31.919Z,25.69
2018-06-03T10:21:31.987Z,25.74
2018-06-03T10:22:31.968Z,25.74
2018-06-03T10:23:53.016Z,25.72
2018-06-03T10:24:32.028Z,25.76
2018-06-03T10:25:32.046Z,25.74
2018-06-03T10:26:32.074Z,25.72
2018-06-03T10:27:32.097Z,25.75
2018-06-03T10:28:32.123Z,25.72
2018-06-03T10:29:53.165Z,25.69
2018-06-03T10:30:32.169Z,25.69
2018-06-03T10:31:32.200Z,25.67
2018-06-03T10:32:32.223Z,25.63
2018-06-03T10:33:32.251Z,25.61
2018-06-03T10:34:32.273Z,25.54
2018-06-03T10:35:53.328Z,25.57
2018-06-03T10:36:32.331Z,25.53
2018-06-03T10:37:32.355Z,25.53
2018-06-03T10:38:32.376Z,25.53
2018-06-03T10:39:32.403Z,25.44
2018-06-03T10:40:32.427Z,25.48
2018-06-03T10:41:53.473Z,25.42
2018-06-03T10:42:32.479Z,25.46
2018-06-03T10:43:32.502Z,25.44
2018-06-03T10:44:32.529Z,25.39
2018-06-03T10:45:32.553Z,25.39
2018-06-03T10:46:32.576Z,25.31
2018-06-03T10:47:53.621Z,25.30
2018-06-03T10:48:32.633Z,25.30
2018-06-03T10:49:32.653Z,25.34
2018-06-03T10:50:32.681Z,25.31
2018-06-03T10:51:32.709Z,25.38
2018-06-03T10:52:32.728Z,25.31
2018-06-03T10:53:53.770Z,25.30
2018-06-03T10:54:32.812Z,25.26
2018-06-03T10:55:32.811Z,25.22
2018-06-03T10:56:32.832Z,25.26
2018-06-03T10:57:32.855Z,25.24
2018-06-03T10:58:32.880Z,25.20
2018-06-03T10:59:53.980Z,25.20
2018-06-03T11:00:32.935Z,25.29
2018-06-03T11:01:32.954Z,25.22
2018-06-03T11:02:32.978Z,25.23
2018-06-03T11:03:33.007Z,25.22
2018-06-03T11:04:33.032Z,25.16
2018-06-03T11:05:54.072Z,25.17
2018-06-03T11:06:33.081Z,25.17
2018-06-03T11:07:33.107Z,25.19
2018-06-03T11:08:33.134Z,25.17
2018-06-03T11:09:33.157Z,25.19
2018-06-03T11:10:33.181Z,25.24
2018-06-03T11:11:54.228Z,25.20
2018-06-03T11:12:33.235Z,25.17
2018-06-03T11:13:33.255Z,25.20
2018-06-03T11:14:33.280Z,25.24
2018-06-03T11:15:33.309Z,25.23
2018-06-03T11:16:33.342Z,25.23
2018-06-03T11:17:54.373Z,25.22
2018-06-03T11:18:33.381Z,25.23
2018-06-03T11:19:33.409Z,25.22
2018-06-03T11:20:33.431Z,25.23
2018-06-03T11:21:33.458Z,25.23
2018-06-03T11:22:33.480Z,25.17
2018-06-03T11:23:54.529Z,25.31
2018-06-03T11:24:33.534Z,25.30
2018-06-03T11:25:33.556Z,25.34
2018-06-03T11:26:33.585Z,25.38
2018-06-03T11:27:33.628Z,25.34
2018-06-03T11:28:33.632Z,25.29
2018-06-03T11:29:54.675Z,25.31
2018-06-03T11:30:33.689Z,25.34
2018-06-03T11:31:33.711Z,25.27
2018-06-03T11:32:33.736Z,25.35
2018-06-03T11:33:33.756Z,25.31
2018-06-03T11:34:33.782Z,25.29
2018-06-03T11:35:54.831Z,25.38
2018-06-03T11:36:33.834Z,25.34
2018-06-03T11:37:33.856Z,25.35
2018-06-03T11:38:33.883Z,25.35
2018-06-03T11:39:33.907Z,25.38
2018-06-03T11:40:33.930Z,25.31
2018-06-03T11:41:54.991Z,25.39
2018-06-03T11:42:33.983Z,25.34
2018-06-03T11:43:34.010Z,25.46
2018-06-03T11:44:34.036Z,25.42
2018-06-03T11:45:34.057Z,25.49
2018-06-03T11:46:34.086Z,25.45
2018-06-03T11:47:55.127Z,25.48
2018-06-03T11:48:34.134Z,25.42
2018-06-03T11:49:34.158Z,25.45
2018-06-03T11:50:34.183Z,25.46
2018-06-03T11:51:34.242Z,25.46
2018-06-03T11:52:34.233Z,25.49
2018-06-03T11:53:55.335Z,25.48
2018-06-03T11:54:34.285Z,25.46
2018-06-03T11:55:34.316Z,25.56
2018-06-03T11:56:34.334Z,25.54
2018-06-03T11:57:34.358Z,25.59
2018-06-03T11:58:34.389Z,25.54
2018-06-03T11:59:55.436Z,25.63
2018-06-03T12:00:34.438Z,25.59
2018-06-03T12:01:34.460Z,25.66
2018-06-03T12:02:34.487Z,25.71
2018-06-03T12:03:34.509Z,25.69
2018-06-03T12:04:34.537Z,25.75
2018-06-03T12:05:55.576Z,25.72
2018-06-03T12:06:34.587Z,25.74
2018-06-03T12:07:34.611Z,25.71
2018-06-03T12:08:34.637Z,25.76
2018-06-03T12:09:34.662Z,25.83
2018-06-03T12:10:34.686Z,25.86
2018-06-03T12:11:55.735Z,25.83
2018-06-03T12:12:34.739Z,25.89
2018-06-03T12:13:34.762Z,25.85
2018-06-03T12:14:34.795Z,25.93
2018-06-03T12:15:34.824Z,25.98
2018-06-03T12:16:34.845Z,25.98
2018-06-03T12:17:55.883Z,25.94
2018-06-03T12:18:34.894Z,25.97
2018-06-03T12:19:34.920Z,25.94
2018-06-03T12:20:34.942Z,25.94
2018-06-03T12:21:34.970Z,25.96
2018-06-03T12:22:34.991Z,26.03
2018-06-03T12:23:56.036Z,26.03
2018-06-03T12:24:35.042Z,25.89
2018-06-03T12:25:35.066Z,25.86
2018-06-03T12:26:35.094Z,25.98
2018-06-03T12:27:35.124Z,25.85
2018-06-03T12:28:35.248Z,25.94
2018-06-03T12:29:56.186Z,25.94
2018-06-03T12:30:35.196Z,25.97
2018-06-03T12:31:35.223Z,25.86
2018-06-03T12:32:35.246Z,26.00
2018-06-03T12:33:35.272Z,26.01
2018-06-03T12:34:35.309Z,25.94
2018-06-03T12:35:56.357Z,26.01
2018-06-03T12:36:35.348Z,25.96
2018-06-03T12:37:35.376Z,25.90
2018-06-03T12:38:35.399Z,25.97
2018-06-03T12:39:35.425Z,26.01
2018-06-03T12:40:35.483Z,26.08
2018-06-03T12:41:56.552Z,25.98
2018-06-03T12:42:35.502Z,25.94
2018-06-03T12:43:35.532Z,25.94
2018-06-03T12:44:35.560Z,25.86
2018-06-03T12:45:35.582Z,26.03
2018-06-03T12:46:35.611Z,25.96
2018-06-03T12:47:56.649Z,26.04
2018-06-03T12:48:35.663Z,25.98
2018-06-03T12:49:35.679Z,25.98
2018-06-03T12:50:35.708Z,25.97
2018-06-03T12:51:35.735Z,25.96
2018-06-03T12:52:35.761Z,26.06